createdAt,value
2023-05-19T00:00:25.812Z,0.00
2023-05-19T00:01:26.084Z,1.00
2023-05-19T00:02:26.451Z,0.00
2023-05-19T00:03:26.702Z,0.00
2023-05-19T00:04:26.970Z,0.00
2023-05-19T00:05:27.455Z,0.00
2023-05-19T00:06:27.626Z,0.00
2023-05-19T00:07:27.828Z,1.00
2023-05-19T00:08:28.247Z,1.00
2023-05-19T00:09:28.485Z,0.00
2023-05-19T00:10:28.744Z,0.00
2023-05-19T00:11:29.064Z,0.00
2023-05-19T00:12:29.278Z,1.00
2023-05-19T00:13:29.637Z,0.00
2023-05-19T00:14:29.900Z,0.00
2023-05-19T00:15:30.226Z,0.00
2023-05-19T00:16:30.627Z,0.00
2023-05-19T00:17:30.891Z,0.00
2023-05-19T00:18:31.142Z,0.00
2023-05-19T00:19:31.562Z,0.00
2023-05-19T00:20:31.957Z,0.00
2023-05-19T00:21:32.107Z,0.00
2023-05-19T00:22:32.319Z,0.00
2023-05-19T00:23:32.571Z,0.00
2023-05-19T00:24:32.805Z,0.00
2023-05-19T00:25:33.572Z,0.00
2023-05-19T00:26:33.435Z,0.00
2023-05-19T00:27:33.683Z,0.00
2023-05-19T00:28:33.988Z,0.00
2023-05-19T00:29:34.329Z,0.00
2023-05-19T00:30:34.746Z,0.00
2023-05-19T00:31:34.987Z,1.00
2023-05-19T00:32:35.141Z,1.00
2023-05-19T00:33:35.465Z,0.00
2023-05-19T00:34:35.994Z,0.00
2023-05-19T00:35:36.070Z,0.00
2023-05-19T00:36:36.521Z,0.00
2023-05-19T00:37:36.635Z,0.00
2023-05-19T00:38:36.999Z,0.00
2023-05-19T00:39:37.325Z,0.00
2023-05-19T00:40:37.483Z,0.00
2023-05-19T00:41:37.789Z,0.00
2023-05-19T00:42:38.106Z,0.00
2023-05-19T00:43:38.417Z,0.00
2023-05-19T00:44:38.723Z,0.00
2023-05-19T00:45:39.006Z,1.00
2023-05-19T00:46:39.330Z,0.00
2023-05-19T00:47:39.680Z,1.00
2023-05-19T00:48:39.983Z,0.00
2023-05-19T00:49:40.291Z,0.00
2023-05-19T00:50:40.565Z,0.00
2023-05-19T00:51:40.887Z,0.00
2023-05-19T00:52:41.218Z,0.00
2023-05-19T00:53:41.565Z,0.00
2023-05-19T00:54:41.822Z,0.00
2023-05-19T00:55:42.190Z,0.00
2023-05-19T00:56:42.495Z,0.00
2023-05-19T00:57:42.797Z,0.00
2023-05-19T00:58:43.030Z,0.00
2023-05-19T00:59:43.980Z,0.00
2023-05-19T01:00:43.665Z,0.00
2023-05-19T01:01:43.945Z,0.00
2023-05-19T01:02:44.320Z,0.00
2023-05-19T01:03:44.728Z,1.00
2023-05-19T01:04:44.849Z,1.00
2023-05-19T01:05:45.135Z,0.00
2023-05-19T01:06:45.724Z,0.00
2023-05-19T01:07:45.813Z,0.00
2023-05-19T01:08:46.111Z,0.00
2023-05-19T01:09:46.435Z,0.00
2023-05-19T01:10:46.665Z,0.00
2023-05-19T01:11:47.072Z,0.00
2023-05-19T01:12:47.226Z,0.00
2023-05-19T01:13:47.514Z,0.00
2023-05-19T01:14:47.876Z,1.00
2023-05-19T01:15:48.173Z,0.00
2023-05-19T01:16:48.771Z,0.00
2023-05-19T01:17:48.752Z,0.00
2023-05-19T01:18:49.142Z,0.00
2023-05-19T01:19:49.288Z,0.00
2023-05-19T01:20:49.539Z,0.00
2023-05-19T01:21:49.860Z,0.00
2023-05-19T01:22:50.214Z,0.00
2023-05-19T01:23:50.481Z,0.00
2023-05-19T01:24:50.823Z,0.00
2023-05-19T01:25:51.066Z,0.00
2023-05-19T01:26:51.422Z,0.00
2023-05-19T01:27:51.682Z,0.00
2023-05-19T01:28:51.931Z,0.00
2023-05-19T01:29:52.252Z,0.00
2023-05-19T01:30:52.534Z,1.00
2023-05-19T01:31:52.866Z,0.00
2023-05-19T01:32:53.165Z,0.00
2023-05-19T01:33:53.531Z,0.00
2023-05-19T01:34:54.700Z,0.00
2023-05-19T01:35:54.011Z,0.00
2023-05-19T01:36:54.357Z,0.00
2023-05-19T01:37:54.611Z,0.00
2023-05-19T01:38:54.804Z,0.00
2023-05-19T01:39:55.054Z,0.00
2023-05-19T01:40:55.348Z,1.00
2023-05-19T01:41:55.745Z,0.00
2023-05-19T01:42:57.496Z,0.00
2023-05-19T01:43:56.242Z,0.00
2023-05-19T01:44:56.635Z,0.00
2023-05-19T01:45:56.880Z,0.00
2023-05-19T01:46:57.169Z,0.00
2023-05-19T01:47:57.571Z,0.00
2023-05-19T01:48:57.775Z,0.00
2023-05-19T01:49:57.998Z,0.00
2023-05-19T01:50:58.337Z,0.00
2023-05-19T01:51:58.559Z,1.00
2023-05-19T01:52:59.232Z,1.00
2023-05-19T01:53:59.082Z,0.00
2023-05-19T01:54:59.349Z,0.00
2023-05-19T01:56:00.557Z,0.00
2023-05-19T01:56:59.900Z,0.00
2023-05-19T01:58:00.233Z,0.00
2023-05-19T01:59:00.555Z,0.00
2023-05-19T02:00:00.748Z,0.00
2023-05-19T02:01:01.113Z,0.00
2023-05-19T02:02:01.394Z,0.00
2023-05-19T02:03:01.714Z,0.00
2023-05-19T02:04:02.353Z,0.00
2023-05-19T02:05:02.316Z,0.00
2023-05-19T02:06:02.577Z,0.00
2023-05-19T02:07:03.057Z,0.00
2023-05-19T02:08:03.253Z,0.00
2023-05-19T02:09:03.417Z,0.00
2023-05-19T02:10:04.566Z,0.00
2023-05-19T02:11:04.028Z,0.00
2023-05-19T02:12:04.467Z,0.00
2023-05-19T02:13:05.443Z,0.00
2023-05-19T02:14:04.936Z,0.00
2023-05-19T02:15:05.192Z,0.00
2023-05-19T02:16:05.619Z,0.00
2023-05-19T02:17:05.918Z,0.00
2023-05-19T02:18:06.217Z,0.00
2023-05-19T02:19:06.582Z,0.00
2023-05-19T02:20:06.718Z,0.00
2023-05-19T02:21:07.134Z,0.00
2023-05-19T02:22:07.342Z,0.00
2023-05-19T02:23:07.611Z,0.00
2023-05-19T02:24:07.988Z,0.00
2023-05-19T02:25:08.218Z,0.00
2023-05-19T02:26:08.590Z,0.00
2023-05-19T02:27:09.027Z,0.00
2023-05-19T02:28:09.140Z,0.00
2023-05-19T02:29:09.396Z,0.00
2023-05-19T02:30:09.710Z,0.00
2023-05-19T02:31:09.926Z,1.00
2023-05-19T02:32:10.309Z,0.00
2023-05-19T02:33:10.598Z,1.00
2023-05-19T02:34:10.909Z,0.00
2023-05-19T02:35:11.169Z,0.00
2023-05-19T02:36:11.482Z,0.00
2023-05-19T02:37:11.799Z,0.00
2023-05-19T02:38:12.051Z,0.00
2023-05-19T02:39:12.461Z,0.00
2023-05-19T02:40:12.670Z,0.00
2023-05-19T02:41:12.937Z,0.00
2023-05-19T02:42:13.663Z,0.00
2023-05-19T02:43:13.672Z,0.00
2023-05-19T02:44:13.915Z,0.00
2023-05-19T02:45:14.317Z,0.00
2023-05-19T02:46:15.510Z,0.00
2023-05-19T02:47:14.673Z,0.00
2023-05-19T02:48:14.857Z,1.00
2023-05-19T02:49:15.182Z,1.00
2023-05-19T02:50:15.969Z,0.00
2023-05-19T02:51:15.849Z,0.00
2023-05-19T02:52:16.192Z,0.00
2023-05-19T02:53:16.312Z,0.00
2023-05-19T02:54:17.138Z,0.00
2023-05-19T02:55:16.966Z,0.00
2023-05-19T02:56:17.235Z,0.00
2023-05-19T02:57:17.506Z,0.00
2023-05-19T02:58:17.852Z,0.00
2023-05-19T02:59:18.071Z,0.00
2023-05-19T03:00:18.474Z,0.00
2023-05-19T03:01:18.609Z,0.00
2023-05-19T03:02:18.948Z,0.00
2023-05-19T03:03:19.197Z,1.00
2023-05-19T03:04:19.593Z,1.00
2023-05-19T03:05:19.759Z,1.00
2023-05-19T03:06:19.973Z,1.00
2023-05-19T03:07:20.325Z,1.00
2023-05-19T03:08:20.670Z,1.00
2023-05-19T03:09:20.886Z,2.00
2023-05-19T03:10:21.333Z,0.00
2023-05-19T03:11:21.640Z,0.00
2023-05-19T03:12:22.005Z,2.00
2023-05-19T03:13:22.292Z,1.00
2023-05-19T03:14:22.894Z,1.00
2023-05-19T03:15:22.690Z,2.00
2023-05-19T03:16:23.054Z,2.00
2023-05-19T03:17:23.270Z,1.00
2023-05-19T03:18:23.607Z,5.00
2023-05-19T03:19:24.063Z,8.00
2023-05-19T03:20:24.021Z,6.00
2023-05-19T03:21:24.300Z,5.00
2023-05-19T03:22:24.783Z,7.00
2023-05-19T03:23:24.969Z,5.00
2023-05-19T03:24:26.149Z,4.00
2023-05-19T03:25:25.531Z,7.00
2023-05-19T03:26:25.967Z,9.00
2023-05-19T03:27:26.117Z,7.00
2023-05-19T03:28:26.360Z,10.00
2023-05-19T03:29:26.816Z,6.00
2023-05-19T03:30:26.891Z,14.00
2023-05-19T03:31:27.130Z,16.00
2023-05-19T03:32:27.519Z,19.00
2023-05-19T03:33:27.767Z,22.00
2023-05-19T03:34:27.977Z,24.00
2023-05-19T03:35:28.338Z,28.00
2023-05-19T03:36:28.616Z,27.00
2023-05-19T03:37:28.965Z,30.00
2023-05-19T03:38:29.269Z,32.00
2023-05-19T03:39:29.574Z,43.00
2023-05-19T03:40:29.987Z,45.00
2023-05-19T03:41:30.320Z,45.00
2023-05-19T03:42:30.594Z,45.00
2023-05-19T03:43:30.860Z,49.00
2023-05-19T03:44:31.036Z,51.00
2023-05-19T03:45:31.373Z,54.00
2023-05-19T03:46:31.722Z,62.00
2023-05-19T03:47:32.043Z,62.00
2023-05-19T03:48:32.196Z,68.00
2023-05-19T03:49:32.503Z,69.00
2023-05-19T03:50:33.074Z,71.00
2023-05-19T03:51:33.052Z,76.00
2023-05-19T03:52:33.460Z,81.00
2023-05-19T03:53:33.710Z,87.00
2023-05-19T03:54:33.933Z,85.00
2023-05-19T03:55:34.314Z,92.00
2023-05-19T03:56:34.544Z,95.00
2023-05-19T03:57:34.777Z,99.00
2023-05-19T03:58:35.056Z,104.00
2023-05-19T03:59:35.479Z,109.00
2023-05-19T04:00:35.958Z,115.00
2023-05-19T04:01:35.913Z,121.00
2023-05-19T04:02:36.200Z,127.00
2023-05-19T04:03:36.411Z,131.00
2023-05-19T04:04:36.766Z,138.00
2023-05-19T04:05:37.022Z,142.00
2023-05-19T04:06:37.256Z,149.00
2023-05-19T04:07:37.688Z,156.00
2023-05-19T04:08:37.830Z,166.00
2023-05-19T04:09:38.169Z,165.00
2023-05-19T04:10:38.527Z,176.00
2023-05-19T04:11:38.739Z,183.00
2023-05-19T04:12:39.031Z,190.00
2023-05-19T04:13:39.201Z,196.00
2023-05-19T04:14:39.390Z,197.00
2023-05-19T04:15:39.813Z,212.00
2023-05-19T04:16:40.009Z,214.00
2023-05-19T04:17:40.346Z,222.00
2023-05-19T04:18:40.667Z,224.00
2023-05-19T04:19:41.008Z,237.00
2023-05-19T04:20:41.216Z,241.00
2023-05-19T04:21:41.588Z,250.00
2023-05-19T04:22:41.995Z,252.00
2023-05-19T04:23:42.233Z,264.00
2023-05-19T04:24:42.411Z,272.00
2023-05-19T04:25:42.832Z,273.00
2023-05-19T04:26:43.031Z,279.00
2023-05-19T04:27:43.448Z,290.00
2023-05-19T04:28:43.682Z,294.00
2023-05-19T04:29:43.880Z,303.00
2023-05-19T04:30:44.184Z,314.00
2023-05-19T04:31:44.697Z,316.00
2023-05-19T04:32:44.830Z,318.00
2023-05-19T04:33:45.948Z,327.00
2023-05-19T04:34:45.343Z,336.00
2023-05-19T04:35:45.665Z,341.00
2023-05-19T04:36:45.979Z,349.00
2023-05-19T04:37:46.183Z,360.00
2023-05-19T04:38:46.571Z,363.00
2023-05-19T04:39:46.800Z,370.00
2023-05-19T04:40:47.188Z,380.00
2023-05-19T04:41:47.402Z,388.00
2023-05-19T04:42:47.691Z,390.00
2023-05-19T04:43:48.021Z,412.00
2023-05-19T04:44:48.341Z,413.00
2023-05-19T04:45:48.793Z,424.00
2023-05-19T04:46:48.971Z,434.00
2023-05-19T04:47:49.445Z,447.00
2023-05-19T04:48:49.624Z,454.00
2023-05-19T04:49:49.849Z,463.00
2023-05-19T04:50:50.305Z,480.00
2023-05-19T04:51:51.118Z,486.00
2023-05-19T04:52:50.590Z,501.00
2023-05-19T04:53:50.824Z,508.00
2023-05-19T04:54:51.423Z,523.00
2023-05-19T04:55:51.477Z,526.00
2023-05-19T04:56:51.841Z,546.00
2023-05-19T04:57:52.084Z,545.00
2023-05-19T04:58:52.480Z,554.00
2023-05-19T04:59:52.679Z,561.00
2023-05-19T05:00:52.989Z,574.00
2023-05-19T05:01:53.407Z,574.00
2023-05-19T05:02:53.729Z,590.00
2023-05-19T05:03:53.938Z,590.00
2023-05-19T05:04:54.237Z,607.00
2023-05-19T05:05:54.431Z,612.00
2023-05-19T05:06:54.752Z,618.00
2023-05-19T05:07:55.279Z,634.00
2023-05-19T05:08:55.494Z,625.00
2023-05-19T05:09:55.738Z,632.00
2023-05-19T05:10:55.950Z,650.00
2023-05-19T05:11:56.266Z,661.00
2023-05-19T05:12:56.584Z,662.00
2023-05-19T05:13:56.957Z,667.00
2023-05-19T05:14:57.239Z,696.00
2023-05-19T05:15:57.438Z,718.00
2023-05-19T05:16:57.815Z,704.00
2023-05-19T05:17:58.089Z,710.00
2023-05-19T05:18:58.423Z,712.00
2023-05-19T05:19:58.577Z,710.00
2023-05-19T05:20:58.848Z,737.00
2023-05-19T05:21:59.056Z,735.00
2023-05-19T05:22:59.391Z,756.00
2023-05-19T05:23:59.761Z,759.00
2023-05-19T05:24:59.887Z,779.00
2023-05-19T05:26:00.080Z,781.00
2023-05-19T05:27:04.557Z,803.00
2023-05-19T05:28:01.129Z,806.00
2023-05-19T05:29:01.062Z,813.00
2023-05-19T05:30:01.215Z,819.00
2023-05-19T05:31:01.553Z,846.00
2023-05-19T05:32:01.806Z,826.00
2023-05-19T05:33:02.116Z,860.00
2023-05-19T05:34:02.446Z,904.00
2023-05-19T05:35:02.685Z,848.00
2023-05-19T05:36:02.887Z,899.00
2023-05-19T05:37:03.308Z,866.00
2023-05-19T05:38:03.459Z,905.00
2023-05-19T05:39:03.723Z,890.00
2023-05-19T05:40:04.075Z,837.00
2023-05-19T05:41:04.283Z,937.00
2023-05-19T05:42:04.511Z,890.00
2023-05-19T05:43:04.863Z,982.00
2023-05-19T05:44:05.046Z,933.00
2023-05-19T05:45:05.287Z,940.00
2023-05-19T05:46:05.637Z,964.00
2023-05-19T05:47:05.886Z,981.00
2023-05-19T05:48:06.134Z,997.00
2023-05-19T05:49:06.923Z,1015.00
2023-05-19T05:50:06.670Z,1020.00
2023-05-19T05:51:06.962Z,1042.00
2023-05-19T05:52:07.198Z,1092.00
2023-05-19T05:53:07.508Z,1093.00
2023-05-19T05:54:07.781Z,1096.00
2023-05-19T05:55:08.281Z,1159.00
2023-05-19T05:56:08.364Z,1126.00
2023-05-19T05:57:08.617Z,1133.00
2023-05-19T05:58:08.847Z,1175.00
2023-05-19T05:59:09.123Z,1209.00
2023-05-19T06:00:09.317Z,1164.00
2023-05-19T06:01:09.755Z,1234.00
2023-05-19T06:02:09.988Z,1254.00
2023-05-19T06:03:10.377Z,1186.00
2023-05-19T06:04:10.449Z,1248.00
2023-05-19T06:05:10.690Z,1303.00
2023-05-19T06:06:11.151Z,1349.00
2023-05-19T06:07:11.174Z,1318.00
2023-05-19T06:08:11.470Z,1351.00
2023-05-19T06:09:11.794Z,1358.00
2023-05-19T06:10:11.982Z,1360.00
2023-05-19T06:11:12.353Z,1341.00
2023-05-19T06:12:12.668Z,1408.00
2023-05-19T06:13:12.955Z,1357.00
2023-05-19T06:14:13.202Z,1338.00
2023-05-19T06:15:13.425Z,1296.00
2023-05-19T06:16:13.772Z,1307.00
2023-05-19T06:17:13.969Z,1305.00
2023-05-19T06:18:14.302Z,1281.00
2023-05-19T06:19:14.556Z,1233.00
2023-05-19T06:20:14.843Z,1233.00
2023-05-19T06:21:15.060Z,1209.00
2023-05-19T06:22:15.283Z,1231.00
2023-05-19T06:23:15.535Z,1173.00
2023-05-19T06:24:15.949Z,1175.00
2023-05-19T06:25:16.378Z,1172.00
2023-05-19T06:26:16.447Z,1199.00
2023-05-19T06:27:16.656Z,1147.00
2023-05-19T06:28:17.077Z,1163.00
2023-05-19T06:29:17.316Z,1114.00
2023-05-19T06:30:17.854Z,1125.00
2023-05-19T06:31:17.938Z,1128.00
2023-05-19T06:32:18.260Z,1166.00
2023-05-19T06:33:21.798Z,1119.00
2023-05-19T06:34:18.762Z,1122.00
2023-05-19T06:35:19.966Z,1104.00
2023-05-19T06:36:19.364Z,1097.00
2023-05-19T06:37:19.556Z,1146.00
2023-05-19T06:38:19.875Z,1163.00
2023-05-19T06:39:20.284Z,1066.00
2023-05-19T06:40:20.483Z,1137.00
2023-05-19T06:41:20.984Z,1164.00
2023-05-19T06:42:21.046Z,1093.00
2023-05-19T06:43:22.226Z,1153.00
2023-05-19T06:44:21.581Z,1140.00
2023-05-19T06:45:21.839Z,1160.00
2023-05-19T06:46:22.095Z,1149.00
2023-05-19T06:47:22.407Z,1119.00
2023-05-19T06:48:22.555Z,1113.00
2023-05-19T06:49:22.893Z,1133.00
2023-05-19T06:50:23.155Z,1111.00
2023-05-19T06:51:23.423Z,1146.00
2023-05-19T06:52:23.682Z,1186.00
2023-05-19T06:53:24.929Z,1161.00
2023-05-19T06:54:24.190Z,1215.00
2023-05-19T06:55:24.488Z,1190.00
2023-05-19T06:56:24.781Z,1211.00
2023-05-19T06:57:25.013Z,1206.00
2023-05-19T06:58:25.314Z,1213.00
2023-05-19T06:59:25.528Z,1224.00
2023-05-19T07:00:25.861Z,1280.00
2023-05-19T07:01:26.270Z,1236.00
2023-05-19T07:02:26.348Z,1243.00
2023-05-19T07:03:26.727Z,1257.00
2023-05-19T07:04:26.921Z,1245.00
2023-05-19T07:05:27.135Z,1229.00
2023-05-19T07:06:27.468Z,1219.00
2023-05-19T07:07:27.690Z,1251.00
2023-05-19T07:08:27.961Z,1237.00
2023-05-19T07:09:29.172Z,1245.00
2023-05-19T07:10:28.417Z,1247.00
2023-05-19T07:11:28.823Z,1253.00
2023-05-19T07:12:29.102Z,1249.00
2023-05-19T07:13:29.440Z,1250.00
2023-05-19T07:14:29.735Z,1287.00
2023-05-19T07:15:29.973Z,1263.00
2023-05-19T07:16:30.250Z,1279.00
2023-05-19T07:17:31.502Z,1270.00
2023-05-19T07:18:30.706Z,1275.00
2023-05-19T07:19:31.061Z,1291.00
2023-05-19T07:20:31.427Z,1295.00
2023-05-19T07:21:31.578Z,1277.00
2023-05-19T07:22:32.092Z,1303.00
2023-05-19T07:23:32.124Z,1322.00
2023-05-19T07:24:32.348Z,1308.00
2023-05-19T07:25:32.652Z,1316.00
2023-05-19T07:26:32.980Z,1280.00
2023-05-19T07:27:33.140Z,1335.00
2023-05-19T07:28:34.499Z,1320.00
2023-05-19T07:29:33.812Z,1309.00
2023-05-19T07:30:34.266Z,1594.00
2023-05-19T07:31:34.272Z,1333.00
2023-05-19T07:32:34.588Z,1351.00
2023-05-19T07:33:34.970Z,1347.00
2023-05-19T07:34:35.168Z,1409.00
2023-05-19T07:35:35.372Z,1403.00
2023-05-19T07:36:35.741Z,1416.00
2023-05-19T07:37:36.192Z,1381.00
2023-05-19T07:38:36.329Z,1344.00
2023-05-19T07:39:36.577Z,1439.00
2023-05-19T07:40:36.854Z,1508.00
2023-05-19T07:41:37.959Z,1531.00
2023-05-19T07:42:37.381Z,1574.00
2023-05-19T07:43:37.597Z,1604.00
2023-05-19T07:44:37.821Z,1632.00
2023-05-19T07:45:38.276Z,1617.00
2023-05-19T07:46:38.433Z,1677.00
2023-05-19T07:47:38.777Z,1606.00
2023-05-19T07:48:38.985Z,1606.00
2023-05-19T07:49:39.197Z,1817.00
2023-05-19T07:50:39.510Z,1748.00
2023-05-19T07:51:39.722Z,1795.00
2023-05-19T07:52:40.248Z,1820.00
2023-05-19T07:53:40.315Z,1863.00
2023-05-19T07:54:40.575Z,1879.00
2023-05-19T07:55:40.787Z,1999.00
2023-05-19T07:56:41.153Z,2004.00
2023-05-19T07:57:41.553Z,2022.00
2023-05-19T07:58:41.691Z,2809.00
2023-05-19T07:59:42.090Z,2282.00
2023-05-19T08:00:42.631Z,1655.00
2023-05-19T08:01:42.623Z,2316.00
2023-05-19T08:02:43.192Z,2527.00
2023-05-19T08:03:43.466Z,2565.00
2023-05-19T08:04:44.075Z,2843.00
2023-05-19T08:05:43.776Z,3598.00
2023-05-19T08:06:44.094Z,2181.00
2023-05-19T08:07:44.281Z,3493.00
2023-05-19T08:08:44.579Z,3556.00
2023-05-19T08:09:44.920Z,2240.00
2023-05-19T08:10:45.122Z,3120.00
2023-05-19T08:11:45.344Z,2881.00
2023-05-19T08:12:46.159Z,2784.00
2023-05-19T08:13:45.864Z,2795.00
2023-05-19T08:14:46.172Z,3211.00
2023-05-19T08:15:46.444Z,3253.00
2023-05-19T08:16:46.684Z,2223.00
2023-05-19T08:17:47.050Z,4188.00
2023-05-19T08:18:47.235Z,4129.00
2023-05-19T08:19:47.499Z,4203.00
2023-05-19T08:20:47.788Z,4022.00
2023-05-19T08:21:47.989Z,3692.00
2023-05-19T08:22:48.238Z,3757.00
2023-05-19T08:23:48.512Z,3684.00
2023-05-19T08:24:48.758Z,3617.00
2023-05-19T08:25:49.040Z,3647.00
2023-05-19T08:26:49.312Z,3576.00
2023-05-19T08:27:50.618Z,3758.00
2023-05-19T08:28:49.875Z,3588.00
2023-05-19T08:29:50.104Z,3318.00
2023-05-19T08:30:50.292Z,3671.00
2023-05-19T08:31:50.827Z,3579.00
2023-05-19T08:32:51.131Z,3292.00
2023-05-19T08:33:51.255Z,3722.00
2023-05-19T08:34:51.482Z,3167.00
2023-05-19T08:35:51.710Z,3208.00
2023-05-19T08:36:52.147Z,3390.00
2023-05-19T08:37:52.451Z,3268.00
2023-05-19T08:38:52.745Z,3305.00
2023-05-19T08:39:53.221Z,3372.00
2023-05-19T08:40:53.227Z,3450.00
2023-05-19T08:41:53.457Z,3152.00
2023-05-19T08:42:53.702Z,3504.00
2023-05-19T08:43:54.225Z,3323.00
2023-05-19T08:44:54.240Z,3678.00
2023-05-19T08:45:54.478Z,3420.00
2023-05-19T08:46:54.794Z,3400.00
2023-05-19T08:47:55.099Z,3685.00
2023-05-19T08:48:55.313Z,3516.00
2023-05-19T08:49:55.578Z,3431.00
2023-05-19T08:50:56.039Z,3682.00
2023-05-19T08:51:56.030Z,3441.00
2023-05-19T08:52:56.359Z,3538.00
2023-05-19T08:53:56.737Z,3625.00
2023-05-19T08:54:56.996Z,3481.00
2023-05-19T08:55:57.211Z,3487.00
2023-05-19T08:56:57.749Z,3450.00
2023-05-19T08:57:57.981Z,3555.00
2023-05-19T08:58:58.231Z,3556.00
2023-05-19T08:59:58.448Z,3479.00
2023-05-19T09:00:59.069Z,3696.00
2023-05-19T09:01:59.107Z,3745.00
2023-05-19T09:03:00.935Z,3755.00
2023-05-19T09:04:00.689Z,3778.00
2023-05-19T09:04:59.948Z,3688.00
2023-05-19T09:06:00.189Z,3591.00
2023-05-19T09:07:01.338Z,3194.00
2023-05-19T09:08:00.709Z,3575.00
2023-05-19T09:09:01.373Z,3541.00
2023-05-19T09:10:01.258Z,3805.00
2023-05-19T09:11:01.462Z,3439.00
2023-05-19T09:12:01.662Z,4048.00
2023-05-19T09:13:01.980Z,3240.00
2023-05-19T09:14:02.350Z,3660.00
2023-05-19T09:15:02.608Z,3433.00
2023-05-19T09:16:03.096Z,4479.00
2023-05-19T09:17:03.430Z,5229.00
2023-05-19T09:18:03.588Z,4287.00
2023-05-19T09:19:03.893Z,4855.00
2023-05-19T09:20:04.082Z,5276.00
2023-05-19T09:21:04.305Z,5718.00
2023-05-19T09:22:04.656Z,3597.00
2023-05-19T09:23:05.132Z,5554.00
2023-05-19T09:24:05.153Z,6105.00
2023-05-19T09:25:05.355Z,5889.00
2023-05-19T09:26:05.750Z,7030.00
2023-05-19T09:27:06.028Z,6039.00
2023-05-19T09:28:06.291Z,7692.00
2023-05-19T09:29:06.600Z,6758.00
2023-05-19T09:30:06.715Z,6128.00
2023-05-19T09:31:07.089Z,5800.00
2023-05-19T09:32:07.355Z,5445.00
2023-05-19T09:33:07.865Z,5573.00
2023-05-19T09:34:07.901Z,5608.00
2023-05-19T09:35:08.109Z,5885.00
2023-05-19T09:36:08.637Z,5769.00
2023-05-19T09:37:08.814Z,6474.00
2023-05-19T09:38:09.125Z,5861.00
2023-05-19T09:39:09.318Z,5205.00
2023-05-19T09:40:11.103Z,4778.00
2023-05-19T09:41:09.970Z,4655.00
2023-05-19T09:42:10.200Z,3579.00
2023-05-19T09:43:10.359Z,6664.00
2023-05-19T09:44:10.978Z,2777.00
2023-05-19T09:45:11.016Z,5671.00
2023-05-19T09:46:12.952Z,3880.00
2023-05-19T09:47:11.574Z,5245.00
2023-05-19T09:48:11.780Z,4588.00
2023-05-19T09:49:12.132Z,5888.00
2023-05-19T09:50:12.695Z,5580.00
2023-05-19T09:51:12.706Z,4927.00
2023-05-19T09:52:12.963Z,3676.00
2023-05-19T09:53:13.166Z,4587.00
2023-05-19T09:54:16.383Z,4446.00
2023-05-19T09:55:13.849Z,4327.00
2023-05-19T09:56:14.180Z,5348.00
2023-05-19T09:57:14.453Z,4355.00
2023-05-19T09:58:14.802Z,5171.00
2023-05-19T09:59:14.994Z,5225.00
2023-05-19T10:00:15.231Z,3657.00
2023-05-19T10:01:15.567Z,4923.00
2023-05-19T10:02:15.848Z,3859.00
2023-05-19T10:03:16.090Z,3692.00
2023-05-19T10:04:16.280Z,4079.00
2023-05-19T10:05:17.157Z,3930.00
2023-05-19T10:06:17.006Z,3771.00
2023-05-19T10:07:17.299Z,7202.00
2023-05-19T10:08:17.498Z,4537.00
2023-05-19T10:09:17.726Z,4794.00
2023-05-19T10:10:17.969Z,9423.00
2023-05-19T10:11:19.439Z,3434.00
2023-05-19T10:12:18.755Z,5817.00
2023-05-19T10:13:18.890Z,6628.00
2023-05-19T10:14:19.196Z,11101.00
2023-05-19T10:15:22.158Z,8820.00
2023-05-19T10:16:19.835Z,7957.00
2023-05-19T10:17:20.068Z,7672.00
2023-05-19T10:18:20.476Z,15159.00
2023-05-19T10:19:20.804Z,6358.00
2023-05-19T10:20:20.817Z,6158.00
2023-05-19T10:21:21.046Z,5658.00
2023-05-19T10:22:21.350Z,7336.00
2023-05-19T10:23:21.585Z,9669.00
2023-05-19T10:24:21.951Z,11916.00
2023-05-19T10:25:22.186Z,7618.00
2023-05-19T10:26:22.607Z,7811.00
2023-05-19T10:27:22.813Z,7955.00
2023-05-19T10:28:23.311Z,12135.00
2023-05-19T10:29:23.501Z,14607.00
2023-05-19T10:30:23.903Z,13326.00
2023-05-19T10:31:24.258Z,19566.00
2023-05-19T10:32:24.563Z,19938.00
2023-05-19T10:33:24.893Z,16414.00
2023-05-19T10:34:25.244Z,16159.00
2023-05-19T10:35:25.370Z,12753.00
2023-05-19T10:36:25.604Z,20937.00
2023-05-19T10:37:25.887Z,17086.00
2023-05-19T10:38:26.384Z,5985.00
2023-05-19T10:39:26.357Z,7179.00
2023-05-19T10:40:26.607Z,15967.00
2023-05-19T10:41:26.896Z,17730.00
2023-05-19T10:42:27.157Z,17667.00
2023-05-19T10:43:27.454Z,16087.00
2023-05-19T10:44:27.782Z,16553.00
2023-05-19T10:45:28.066Z,17377.00
2023-05-19T10:46:28.316Z,17267.00
2023-05-19T10:47:29.458Z,14650.00
2023-05-19T10:48:29.023Z,18873.00
2023-05-19T10:49:29.150Z,15636.00
2023-05-19T10:50:29.374Z,16074.00
2023-05-19T10:51:29.679Z,16533.00
2023-05-19T10:52:29.971Z,14382.00
2023-05-19T10:53:30.188Z,14426.00
2023-05-19T10:54:30.739Z,17808.00
2023-05-19T10:55:30.954Z,19361.00
2023-05-19T10:56:31.114Z,21343.00
2023-05-19T10:57:31.334Z,21116.00
2023-05-19T10:58:31.658Z,16968.00
2023-05-19T10:59:32.130Z,21414.00
2023-05-19T11:00:32.229Z,21316.00
2023-05-19T11:01:32.496Z,22455.00
2023-05-19T11:02:32.772Z,23072.00
2023-05-19T11:03:33.072Z,26120.00
2023-05-19T11:04:33.792Z,20738.00
2023-05-19T11:05:33.810Z,19643.00
2023-05-19T11:06:34.106Z,17537.00
2023-05-19T11:07:34.164Z,16165.00
2023-05-19T11:08:34.411Z,7765.00
2023-05-19T11:09:40.320Z,14738.00
2023-05-19T11:10:36.089Z,11524.00
2023-05-19T11:11:35.263Z,11504.00
2023-05-19T11:12:35.579Z,24659.00
2023-05-19T11:13:36.719Z,21828.00
2023-05-19T11:14:36.086Z,23213.00
2023-05-19T11:15:36.328Z,16495.00
2023-05-19T11:16:36.669Z,13590.00
2023-05-19T11:17:37.012Z,23783.00
2023-05-19T11:18:37.423Z,24171.00
2023-05-19T11:19:39.438Z,24995.00
2023-05-19T11:20:37.951Z,23516.00
2023-05-19T11:21:38.094Z,73267.00
2023-05-19T11:22:38.422Z,23516.00
2023-05-19T11:23:38.831Z,18662.00
2023-05-19T11:24:39.094Z,19911.00
2023-05-19T11:25:39.319Z,20882.00
2023-05-19T11:26:39.666Z,74414.00
2023-05-19T11:27:40.094Z,26146.00
2023-05-19T11:28:40.231Z,21712.00
2023-05-19T11:29:40.528Z,17697.00
2023-05-19T11:30:40.762Z,26812.00
2023-05-19T11:31:41.151Z,10249.00
2023-05-19T11:32:41.378Z,8217.00
2023-05-19T11:33:41.784Z,6644.00
2023-05-19T11:34:41.966Z,6942.00
2023-05-19T11:35:43.156Z,10959.00
2023-05-19T11:36:42.571Z,6496.00
2023-05-19T11:37:42.821Z,4189.00
2023-05-19T11:38:43.075Z,4478.00
2023-05-19T11:39:43.334Z,5036.00
2023-05-19T11:40:43.646Z,5329.00
2023-05-19T11:41:43.840Z,8786.00
2023-05-19T11:42:44.220Z,5225.00
2023-05-19T11:43:44.452Z,10030.00
2023-05-19T11:44:44.833Z,8362.00
2023-05-19T11:45:45.069Z,5052.00
2023-05-19T11:46:45.377Z,12670.00
2023-05-19T11:48:00.062Z,17601.00
2023-05-19T11:48:47.745Z,11183.00
2023-05-19T11:49:46.091Z,4105.00
2023-05-19T11:50:46.351Z,26393.00
2023-05-19T11:51:46.894Z,14490.00
2023-05-19T11:52:46.902Z,5263.00
2023-05-19T11:53:48.034Z,4760.00
2023-05-19T11:54:47.560Z,8146.00
2023-05-19T11:55:49.033Z,3370.00
2023-05-19T11:56:48.118Z,5715.00
2023-05-19T11:58:02.154Z,5353.00
2023-05-19T11:58:49.660Z,4208.00
2023-05-19T11:59:48.921Z,3799.00
2023-05-19T12:00:49.257Z,3923.00
2023-05-19T12:01:49.471Z,3747.00
2023-05-19T12:02:49.850Z,3132.00
2023-05-19T12:03:50.152Z,3131.00
2023-05-19T12:04:50.400Z,3176.00
2023-05-19T12:05:50.810Z,3339.00
2023-05-19T12:06:51.165Z,3646.00
2023-05-19T12:07:51.221Z,4122.00
2023-05-19T12:08:51.520Z,4084.00
2023-05-19T12:09:51.796Z,4462.00
2023-05-19T12:10:52.101Z,4639.00
2023-05-19T12:11:52.357Z,4667.00
2023-05-19T12:12:52.670Z,4052.00
2023-05-19T12:13:52.889Z,4050.00
2023-05-19T12:14:53.199Z,3953.00
2023-05-19T12:15:53.481Z,4719.00
2023-05-19T12:16:53.819Z,5128.00
2023-05-19T12:17:53.956Z,5598.00
2023-05-19T12:18:55.132Z,4945.00
2023-05-19T12:19:55.423Z,5069.00
2023-05-19T12:20:56.269Z,4506.00
2023-05-19T12:21:55.131Z,4643.00
2023-05-19T12:22:55.354Z,5051.00
2023-05-19T12:23:55.574Z,4757.00
2023-05-19T12:24:55.903Z,5018.00
2023-05-19T12:25:57.140Z,5237.00
2023-05-19T12:26:56.570Z,4759.00
2023-05-19T12:27:58.057Z,4783.00
2023-05-19T12:28:57.236Z,3925.00
2023-05-19T12:29:57.361Z,3783.00
2023-05-19T12:30:57.838Z,3889.00